Time;durP1;ratioP1;P1;durP2;ratioP2;P2;SDS_P1;SDS_P2;PMS_P1;PMS_P2;Temp;Humidity;BMP_temperature;BMP_pressure;BME280_temperature;BME280_humidity;BME280_pressure;Samples;Min_cycle;Max_cycle;Signal;HPM_P1;HPM_P2
2021/10/08 00:00:52;;;;;;;55.10;15.02;;;6.60;99.90;;;;;;4853417;29;20049;-94
2021/10/08 00:04:08;;;;;;;48.35;15.88;;;6.40;99.90;;;;;;4853830;29;20056;-93
2021/10/08 00:10:50;;;;;;;96.85;18.70;;;6.30;99.90;;;;;;4864143;29;20081;-94
2021/10/08 00:13:33;;;;;;;51.08;12.85;;;6.30;99.90;;;;;;4838826;29;20045;-94
2021/10/08 00:20:35;;;;;;;;;;;;;;;;;;;;;
2021/10/08 00:27:23;;;;;;;27.02;11.40;;;6.10;99.90;;;;;;4725421;30;20053;-94
2021/10/08 00:30:01;;;;;;;97.30;13.50;;;6.10;99.90;;;;;;4696828;30;20066;-94
2021/10/08 00:32:32;;;;;;;109.60;15.27;;;6.10;99.90;;;;;;4736967;30;20133;-93
2021/10/08 00:35:11;;;;;;;61.90;13.48;;;6.10;99.90;;;;;;4768739;30;20159;-93
2021/10/08 00:37:58;;;;;;;105.03;15.07;;;6.10;99.90;;;;;;4774601;30;20055;-94
2021/10/08 00:40:55;;;;;;;92.07;16.65;;;6.10;99.90;;;;;;4756077;29;20036;-93
2021/10/08 00:43:51;;;;;;;80.93;16.63;;;6.10;99.90;;;;;;4798120;29;20107;-94
2021/10/08 00:49:53;;;;;;;120.55;18.55;;;6.00;99.90;;;;;;4889590;29;20061;-93
2021/10/08 00:52:46;;;;;;;73.57;15.93;;;6.00;99.90;;;;;;4874762;29;20064;-94
2021/10/08 00:55:34;;;;;;;96.35;15.38;;;6.00;99.90;;;;;;4862264;29;20052;-93
2021/10/08 00:58:19;;;;;;;153.57;20.20;;;6.00;99.90;;;;;;4861555;29;20065;-93
2021/10/08 01:01:22;;;;;;;129.15;18.02;;;6.00;99.90;;;;;;4857374;29;20045;-93
2021/10/08 01:08:38;;;;;;;134.93;17.42;;;6.00;99.90;;;;;;4874941;29;20140;-93
2021/10/08 01:11:45;;;;;;;;;;;;;;;;;;;;;
2021/10/08 01:15:14;;;;;;;;;;;;;;;;;;;;;
2021/10/08 01:18:10;;;;;;;129.13;15.90;;;5.90;99.90;;;;;;4858441;29;20577;-93
2021/10/08 01:20:46;;;;;;;145.25;15.02;;;6.00;99.90;;;;;;4820894;29;20612;-93
2021/10/08 01:23:25;;;;;;;132.00;15.40;;;6.00;99.90;;;;;;4808598;29;20138;-92
2021/10/08 01:26:04;;;;;;;;;;;;;;;;;;;;;
2021/10/08 01:28:37;;;;;;;63.30;14.43;;;5.90;99.90;;;;;;4819205;29;20050;-93
2021/10/08 01:31:06;;;;;;;62.63;14.15;;;5.90;99.90;;;;;;4807085;29;20058;-93
2021/10/08 01:33:47;;;;;;;60.83;12.73;;;5.90;99.90;;;;;;4812031;29;20079;-93
2021/10/08 01:36:24;;;;;;;118.90;14.57;;;5.90;99.90;;;;;;4790816;29;20088;-94
2021/10/08 01:38:56;;;;;;;104.07;14.50;;;5.90;99.90;;;;;;4781304;29;20110;-94
2021/10/08 01:41:33;;;;;;;164.05;16.65;;;5.90;99.90;;;;;;4794477;29;20102;-94
2021/10/08 01:44:02;;;;;;;127.53;17.40;;;5.90;99.90;;;;;;4823489;29;20042;-93
2021/10/08 01:46:43;;;;;;;77.20;13.52;;;5.90;99.90;;;;;;4808743;29;20040;-93
2021/10/08 01:49:17;;;;;;;102.03;15.73;;;5.80;99.90;;;;;;4820628;29;20048;-94
2021/10/08 01:51:54;;;;;;;132.38;19.58;;;5.80;99.90;;;;;;4806310;29;20195;-93
2021/10/08 01:54:32;;;;;;;93.93;15.30;;;5.70;99.90;;;;;;4794568;29;20053;-92
2021/10/08 02:00:13;;;;;;;112.15;16.35;;;5.80;99.90;;;;;;4873875;29;20351;-94
2021/10/08 02:02:59;;;;;;;62.80;14.07;;;5.80;99.90;;;;;;4857338;29;20053;-93
2021/10/08 02:11:24;;;;;;;134.83;17.83;;;5.70;99.90;;;;;;4890329;29;20052;-93
2021/10/08 02:14:19;;;;;;;149.32;19.58;;;5.70;99.90;;;;;;4882769;29;20048;-93
2021/10/08 02:16:51;;;;;;;123.53;18.20;;;5.70;99.90;;;;;;4887008;29;20075;-93
2021/10/08 02:19:34;;;;;;;57.17;18.45;;;5.70;99.90;;;;;;4870861;29;21028;-92
2021/10/08 02:22:09;;;;;;;73.60;17.05;;;5.60;99.90;;;;;;4883231;29;20069;-93
2021/10/08 02:24:51;;;;;;;65.60;16.10;;;5.70;99.90;;;;;;4884390;29;20052;-92
2021/10/08 02:27:20;;;;;;;67.27;16.03;;;5.60;99.90;;;;;;4888519;29;20047;-93
2021/10/08 02:30:14;;;;;;;;;;;;;;;;;;;;;
2021/10/08 02:32:51;;;;;;;63.40;15.15;;;5.60;99.90;;;;;;4883195;29;20045;-92
2021/10/08 02:35:32;;;;;;;74.28;16.80;;;5.60;99.90;;;;;;4885868;29;20090;-93
2021/10/08 02:38:10;;;;;;;79.50;14.05;;;5.60;99.90;;;;;;4863078;29;20705;-93
2021/10/08 02:41:04;;;;;;;74.45;17.50;;;5.70;99.90;;;;;;4884765;29;20580;-93
2021/10/08 02:43:50;;;;;;;118.10;18.98;;;5.60;99.90;;;;;;4884295;29;20051;-94
2021/10/08 02:49:39;;;;;;;112.97;18.77;;;5.60;99.90;;;;;;4888008;29;20108;-93
2021/10/08 02:52:20;;;;;;;69.15;17.95;;;5.60;99.90;;;;;;4864032;29;20053;-93
2021/10/08 02:55:27;;;;;;;69.80;15.75;;;5.60;99.90;;;;;;4885144;29;20085;-93
2021/10/08 03:01:06;;;;;;;136.73;20.67;;;5.60;99.90;;;;;;4887586;29;20053;-93
2021/10/08 03:07:34;;;;;;;;;;;;;;;;;;;;;
2021/10/08 03:10:55;;;;;;;121.05;21.98;;;5.50;99.90;;;;;;4843293;29;20050;-93
2021/10/08 03:13:46;;;;;;;166.68;24.25;;;5.50;99.90;;;;;;4833523;29;21107;-93
2021/10/08 03:19:36;;;;;;;106.55;19.02;;;5.50;99.90;;;;;;4823572;29;20038;-93
2021/10/08 04:59:55;;;;;;;102.50;19.45;;;4.80;99.90;;;;;;4871471;29;20048;-88
2021/10/08 05:02:22;;;;;;;104.35;18.35;;;4.70;99.90;;;;;;4846841;29;20040;-86
2021/10/08 05:04:47;;;;;;;79.50;17.70;;;4.70;99.90;;;;;;4849473;29;20059;-87
2021/10/08 05:07:13;;;;;;;86.43;16.88;;;4.70;99.90;;;;;;4853741;29;20048;-90
2021/10/08 05:09:39;;;;;;;92.07;16.38;;;4.70;99.90;;;;;;4837006;29;20096;-86
2021/10/08 05:12:05;;;;;;;86.47;17.92;;;4.60;99.90;;;;;;4843030;29;20072;-86
2021/10/08 05:14:31;;;;;;;81.35;17.60;;;4.60;99.90;;;;;;4844125;29;21055;-89
2021/10/08 05:17:25;;;;;;;90.10;19.65;;;4.60;99.90;;;;;;4877377;29;20127;-89
2021/10/08 05:19:51;;;;;;;87.80;18.77;;;4.60;99.90;;;;;;4862481;29;20045;-87
2021/10/08 05:22:16;;;;;;;75.32;17.67;;;4.60;99.90;;;;;;4837481;29;20044;-87
2021/10/08 05:24:42;;;;;;;104.32;20.38;;;4.60;99.90;;;;;;4863252;29;20048;-89
2021/10/08 05:27:08;;;;;;;137.70;23.02;;;4.60;99.90;;;;;;4860479;29;20554;-85
2021/10/08 05:29:33;;;;;;;84.57;20.90;;;4.60;99.90;;;;;;4861385;29;20101;-90
2021/10/08 05:31:59;;;;;;;93.28;18.70;;;4.60;99.90;;;;;;4864768;29;20518;-89
2021/10/08 05:34:25;;;;;;;113.15;20.23;;;4.60;99.90;;;;;;4835880;29;20040;-89
2021/10/08 05:36:51;;;;;;;143.45;21.77;;;4.60;99.90;;;;;;4849754;29;20089;-89
2021/10/08 05:39:18;;;;;;;170.32;25.30;;;4.60;99.90;;;;;;4883998;29;20488;-91
2021/10/08 05:41:44;;;;;;;98.88;20.45;;;4.60;99.90;;;;;;4868289;29;20072;-90
2021/10/08 05:44:10;;;;;;;82.40;20.83;;;4.50;99.90;;;;;;4859414;29;20129;-87
2021/10/08 05:46:36;;;;;;;148.82;23.05;;;4.50;99.90;;;;;;4840485;29;20056;-87
2021/10/08 05:49:03;;;;;;;95.18;19.40;;;4.60;99.90;;;;;;4875769;29;20048;-88
2021/10/08 05:51:34;;;;;;;108.65;20.55;;;4.60;99.90;;;;;;4891931;29;20135;-86
2021/10/08 05:54:07;;;;;;;87.68;19.75;;;4.60;99.90;;;;;;4876243;29;20201;-87
2021/10/08 05:56:49;;;;;;;124.00;22.50;;;4.60;99.90;;;;;;4862270;29;21316;-88
2021/10/08 05:59:20;;;;;;;88.47;20.10;;;4.60;99.90;;;;;;4886514;29;20110;-86
2021/10/08 06:01:52;;;;;;;55.75;18.05;;;4.60;99.90;;;;;;4901245;29;20044;-89
2021/10/08 06:04:24;;;;;;;63.92;19.05;;;4.60;99.90;;;;;;4884086;29;20040;-86
2021/10/08 06:06:58;;;;;;;120.78;24.73;;;4.60;99.90;;;;;;4874975;29;20041;-86
2021/10/08 06:09:29;;;;;;;147.20;22.27;;;4.60;99.90;;;;;;4884744;29;20060;-86
2021/10/08 06:11:58;;;;;;;91.07;19.95;;;4.60;99.90;;;;;;4871896;29;20040;-86
2021/10/08 06:14:26;;;;;;;149.52;23.35;;;4.60;99.90;;;;;;4883794;29;20048;-87
2021/10/08 06:16:56;;;;;;;129.55;26.55;;;4.60;99.90;;;;;;4876897;29;20096;-86
2021/10/08 06:19:22;;;;;;;133.15;24.90;;;4.60;99.90;;;;;;4886719;29;20411;-85
2021/10/08 06:21:48;;;;;;;117.68;26.17;;;4.70;99.90;;;;;;4889687;29;20105;-86
2021/10/08 06:24:14;;;;;;;106.30;23.23;;;4.70;99.90;;;;;;4892955;29;20095;-85
2021/10/08 06:26:40;;;;;;;80.65;21.58;;;4.70;99.90;;;;;;4864868;29;20102;-86
2021/10/08 06:29:06;;;;;;;105.57;23.00;;;4.70;99.90;;;;;;4874594;29;20482;-88
2021/10/08 06:31:32;;;;;;;81.70;22.33;;;4.80;99.90;;;;;;4848743;29;20083;-86
2021/10/08 06:33:58;;;;;;;79.43;21.73;;;4.80;99.90;;;;;;4871791;29;20055;-86
2021/10/08 06:36:24;;;;;;;66.95;19.83;;;4.80;99.90;;;;;;4885091;29;20037;-86
2021/10/08 06:38:49;;;;;;;83.78;22.90;;;4.80;99.90;;;;;;4866899;29;20048;-86
2021/10/08 06:41:15;;;;;;;129.45;24.40;;;4.80;99.90;;;;;;4870659;29;20515;-89
2021/10/08 06:43:41;;;;;;;87.70;20.92;;;4.80;99.90;;;;;;4853940;29;20045;-86
2021/10/08 06:46:07;;;;;;;140.68;24.23;;;4.90;99.90;;;;;;4844846;29;20131;-86
2021/10/08 06:48:33;;;;;;;115.75;24.83;;;4.90;99.90;;;;;;4874325;29;20041;-85
2021/10/08 06:50:59;;;;;;;109.68;24.30;;;4.90;99.90;;;;;;4869810;29;20045;-86
2021/10/08 06:53:25;;;;;;;108.43;23.08;;;4.90;99.90;;;;;;4849533;29;20130;-86
2021/10/08 06:55:51;;;;;;;105.43;25.17;;;4.90;99.90;;;;;;4857849;29;20499;-87
2021/10/08 06:58:16;;;;;;;141.27;26.95;;;4.90;99.90;;;;;;4864125;29;20044;-86
2021/10/08 07:00:42;;;;;;;126.00;25.27;;;5.00;99.90;;;;;;4858165;29;20132;-86
2021/10/08 07:03:08;;;;;;;154.00;27.63;;;5.10;99.90;;;;;;4857707;29;20080;-85
2021/10/08 07:05:34;;;;;;;155.77;25.60;;;5.10;99.90;;;;;;4866861;29;20041;-86
2021/10/08 07:08:00;;;;;;;116.00;25.25;;;5.10;99.90;;;;;;4868253;29;20139;-85
2021/10/08 07:10:25;;;;;;;113.05;24.17;;;5.10;99.90;;;;;;4848717;29;20575;-86
2021/10/08 07:12:51;;;;;;;148.50;25.77;;;5.20;99.90;;;;;;4862288;29;20041;-86
2021/10/08 07:15:20;;;;;;;138.63;27.00;;;5.20;99.90;;;;;;4850318;29;20036;-86
2021/10/08 07:17:49;;;;;;;129.45;26.42;;;5.30;99.90;;;;;;4880803;29;20045;-85
2021/10/08 07:20:24;;;;;;;147.90;26.23;;;5.30;99.90;;;;;;4872768;29;20067;-86
2021/10/08 07:22:52;;;;;;;77.88;23.92;;;5.40;99.90;;;;;;4878377;29;20089;-86
2021/10/08 07:25:21;;;;;;;80.32;23.95;;;5.40;99.90;;;;;;4857387;29;20041;-85
2021/10/08 07:27:47;;;;;;;75.30;25.90;;;5.50;99.90;;;;;;4878282;29;20047;-85
2021/10/08 07:30:14;;;;;;;126.63;26.77;;;5.50;99.90;;;;;;4850264;29;20052;-85
2021/10/08 07:32:41;;;;;;;107.90;29.30;;;5.60;99.90;;;;;;4847405;29;20112;-85
2021/10/08 07:35:08;;;;;;;152.32;33.13;;;5.70;99.90;;;;;;4857569;29;20404;-86
2021/10/08 07:37:34;;;;;;;108.40;28.95;;;5.80;99.90;;;;;;4855717;29;20427;-85
2021/10/08 07:40:00;;;;;;;119.68;30.63;;;5.80;99.90;;;;;;4861162;29;20044;-86
2021/10/08 07:42:26;;;;;;;136.38;29.83;;;5.90;99.90;;;;;;4842572;29;20041;-85
2021/10/08 07:44:52;;;;;;;125.65;31.52;;;6.00;99.90;;;;;;4864916;29;20037;-85
2021/10/08 07:47:18;;;;;;;98.28;29.77;;;6.10;99.90;;;;;;4865824;29;20492;-85
2021/10/08 07:49:44;;;;;;;99.78;29.88;;;6.10;99.90;;;;;;4847497;29;20048;-85
2021/10/08 07:52:10;;;;;;;147.93;34.47;;;6.20;99.90;;;;;;4849325;29;20045;-85
2021/10/08 07:54:37;;;;;;;83.32;30.15;;;6.30;99.90;;;;;;4852292;29;20044;-86
2021/10/08 07:57:03;;;;;;;115.07;30.77;;;6.40;99.90;;;;;;4865182;29;20088;-85
2021/10/08 07:59:29;;;;;;;145.40;36.08;;;6.40;99.90;;;;;;4856660;29;20032;-86
2021/10/08 08:01:55;;;;;;;159.25;37.08;;;6.50;99.90;;;;;;4882073;29;20032;-85
2021/10/08 08:04:21;;;;;;;178.50;35.42;;;6.60;99.90;;;;;;4864749;29;20487;-86
2021/10/08 08:06:46;;;;;;;151.45;32.53;;;6.60;99.90;;;;;;4866825;29;20041;-86
2021/10/08 08:09:12;;;;;;;216.02;37.47;;;6.70;99.90;;;;;;4856359;29;20075;-86
2021/10/08 08:11:38;;;;;;;200.93;36.17;;;6.80;99.90;;;;;;4871708;29;20044;-86
2021/10/08 08:14:04;;;;;;;182.18;37.03;;;6.80;99.90;;;;;;4873104;29;20037;-86
2021/10/08 08:16:29;;;;;;;186.15;38.03;;;6.90;99.90;;;;;;4846365;29;20049;-86
2021/10/08 08:18:55;;;;;;;200.98;39.25;;;7.00;99.90;;;;;;4872690;29;20401;-86
2021/10/08 08:21:22;;;;;;;159.35;35.97;;;7.10;99.90;;;;;;4863118;29;20033;-86
2021/10/08 08:23:48;;;;;;;249.85;38.67;;;7.10;99.90;;;;;;4889368;29;20060;-87
2021/10/08 08:26:14;;;;;;;242.07;37.63;;;7.20;99.90;;;;;;4861635;29;20036;-86
2021/10/08 08:28:40;;;;;;;265.40;43.47;;;7.20;99.90;;;;;;4875234;29;20227;-86
2021/10/08 08:31:06;;;;;;;203.48;38.63;;;7.30;99.90;;;;;;4887573;29;20139;-85
2021/10/08 08:33:35;;;;;;;171.98;41.22;;;7.40;99.90;;;;;;4849512;29;20061;-85
2021/10/08 08:36:05;;;;;;;135.25;38.05;;;7.50;99.90;;;;;;4873400;29;20287;-85
2021/10/08 08:38:31;;;;;;;112.50;38.63;;;7.60;99.90;;;;;;4874308;29;20071;-86
2021/10/08 08:41:00;;;;;;;197.48;45.45;;;7.70;99.90;;;;;;4875975;29;20119;-86
2021/10/08 08:43:28;;;;;;;199.23;40.42;;;7.80;99.90;;;;;;4862887;29;20049;-86
2021/10/08 08:45:54;;;;;;;201.35;42.25;;;7.80;99.90;;;;;;4861617;29;20388;-86
2021/10/08 08:48:20;;;;;;;137.90;40.03;;;7.90;99.90;;;;;;4853677;29;20586;-86
2021/10/08 08:50:47;;;;;;;152.98;43.50;;;8.00;99.90;;;;;;4848502;29;20040;-85
2021/10/08 08:53:16;;;;;;;147.07;40.85;;;8.10;99.90;;;;;;4850951;29;20396;-85
2021/10/08 08:55:42;;;;;;;204.65;45.03;;;8.20;99.90;;;;;;4861949;29;20040;-86
2021/10/08 08:58:08;;;;;;;156.23;43.78;;;8.30;99.90;;;;;;4845356;29;20488;-86
2021/10/08 09:00:34;;;;;;;163.23;44.67;;;8.40;99.90;;;;;;4864602;29;20132;-84
2021/10/08 09:03:03;;;;;;;179.57;50.42;;;8.40;99.90;;;;;;4858010;29;20037;-87
2021/10/08 09:05:30;;;;;;;160.60;48.20;;;8.60;99.90;;;;;;4877570;29;20586;-86
2021/10/08 09:08:03;;;;;;;173.13;45.55;;;8.70;99.90;;;;;;4862251;29;20122;-85
2021/10/08 09:10:30;;;;;;;188.43;48.80;;;8.80;99.90;;;;;;4861587;29;20032;-85
2021/10/08 09:12:57;;;;;;;154.45;46.25;;;8.90;99.90;;;;;;4862433;29;20096;-85
2021/10/08 09:15:25;;;;;;;157.07;46.88;;;8.90;99.90;;;;;;4849073;29;20079;-86
2021/10/08 09:18:05;;;;;;;190.93;52.33;;;9.00;99.90;;;;;;4870920;29;20183;-85
2021/10/08 09:20:31;;;;;;;233.25;50.03;;;9.20;99.90;;;;;;4872187;29;20457;-87
2021/10/08 09:22:57;;;;;;;155.40;50.10;;;9.20;99.90;;;;;;4838800;29;20095;-84
2021/10/08 09:25:34;;;;;;;239.75;52.55;;;9.30;99.90;;;;;;4844237;29;20223;-85
2021/10/08 09:28:04;;;;;;;194.82;52.85;;;9.40;99.90;;;;;;4861042;29;20040;-86
2021/10/08 09:30:49;;;;;;;212.98;54.45;;;9.50;99.90;;;;;;4858659;29;20093;-84
2021/10/08 09:33:19;;;;;;;214.48;54.30;;;9.50;99.90;;;;;;4861170;29;20041;-86
2021/10/08 09:35:45;;;;;;;173.73;52.63;;;9.60;99.90;;;;;;4861020;29;20044;-84
2021/10/08 09:38:14;;;;;;;138.95;48.97;;;9.60;99.90;;;;;;4863492;29;20363;-84
2021/10/08 09:40:45;;;;;;;128.02;49.25;;;9.70;99.90;;;;;;4849527;29;20779;-85
2021/10/08 09:43:21;;;;;;;136.93;51.00;;;9.80;99.90;;;;;;4855534;29;20044;-86
2021/10/08 09:46:08;;;;;;;114.28;47.35;;;9.90;99.90;;;;;;4872829;29;20051;-84
2021/10/08 09:48:41;;;;;;;115.68;47.03;;;10.00;99.90;;;;;;4873130;29;20096;-85
2021/10/08 09:51:16;;;;;;;115.28;46.35;;;10.10;99.90;;;;;;4869676;29;20115;-87
2021/10/08 09:53:48;;;;;;;96.30;43.65;;;10.20;99.90;;;;;;4854466;29;20550;-84
2021/10/08 09:56:39;;;;;;;89.97;42.93;;;10.40;99.90;;;;;;4873977;29;20044;-85
2021/10/08 09:59:13;;;;;;;96.65;42.83;;;10.50;99.90;;;;;;4853003;29;20375;-85
2021/10/08 10:01:45;;;;;;;77.03;39.63;;;10.50;99.90;;;;;;4877242;29;20143;-85
2021/10/08 10:04:10;;;;;;;86.30;39.47;;;10.60;99.90;;;;;;4872264;29;20052;-85
2021/10/08 10:06:37;;;;;;;71.32;38.90;;;10.70;99.90;;;;;;4866671;29;20049;-83
2021/10/08 10:09:04;;;;;;;68.43;38.58;;;10.80;99.90;;;;;;4853364;29;20522;-85
2021/10/08 10:11:31;;;;;;;72.28;41.10;;;10.90;99.90;;;;;;4861981;29;20079;-85
2021/10/08 10:13:59;;;;;;;79.53;42.22;;;11.00;99.90;;;;;;4845574;29;20460;-82
2021/10/08 10:16:28;;;;;;;78.43;42.38;;;11.10;99.90;;;;;;4866010;29;20094;-85
2021/10/08 10:18:57;;;;;;;81.97;43.88;;;11.20;99.90;;;;;;4876842;29;20036;-85
2021/10/08 10:21:36;;;;;;;75.43;41.67;;;11.40;99.90;;;;;;4857771;29;20040;-85
2021/10/08 10:24:03;;;;;;;62.15;37.83;;;11.40;99.90;;;;;;4850573;29;20041;-85
2021/10/08 10:26:33;;;;;;;63.90;39.03;;;11.60;99.90;;;;;;4838970;29;20048;-85
2021/10/08 10:28:59;;;;;;;71.93;39.83;;;11.80;99.90;;;;;;4833291;29;20045;-83
2021/10/08 10:31:26;;;;;;;64.43;37.28;;;11.90;99.90;;;;;;4855990;29;20199;-85
2021/10/08 10:33:58;;;;;;;53.85;34.22;;;12.00;99.90;;;;;;4834978;29;20049;-84
2021/10/08 10:36:25;;;;;;;46.85;30.48;;;12.20;99.90;;;;;;4849823;29;21702;-85
2021/10/08 10:39:12;;;;;;;37.58;26.75;;;12.30;99.90;;;;;;4845246;29;20040;-85
2021/10/08 10:41:39;;;;;;;42.70;29.02;;;12.40;99.90;;;;;;4861984;29;20040;-86
2021/10/08 10:44:40;;;;;;;40.53;28.92;;;12.50;99.90;;;;;;4845619;29;20096;-86
2021/10/08 10:47:28;;;;;;;36.35;25.75;;;12.70;99.90;;;;;;4855656;29;20127;-87
2021/10/08 10:50:26;;;;;;;31.77;22.67;;;12.80;99.90;;;;;;4869904;29;20467;-86
2021/10/08 10:52:59;;;;;;;32.65;21.80;;;12.90;99.90;;;;;;4850318;29;20420;-86
2021/10/08 10:55:24;;;;;;;;;;;13.10;99.90;;;;;;4860463;29;20044;-85
2021/10/08 10:57:58;;;;;;;28.38;18.58;;;13.10;99.90;;;;;;4839946;29;20693;-86
2021/10/08 11:00:33;;;;;;;30.63;20.92;;;13.20;99.90;;;;;;4865393;29;20486;-83
2021/10/08 11:03:00;;;;;;;27.45;19.48;;;13.30;99.90;;;;;;4877289;29;20052;-84
2021/10/08 11:05:27;;;;;;;24.38;18.70;;;13.40;99.90;;;;;;4859522;29;20081;-84
2021/10/08 11:08:15;;;;;;;20.90;17.50;;;13.50;99.90;;;;;;4846100;29;20048;-86
2021/10/08 11:11:00;;;;;;;30.65;19.15;;;13.60;99.90;;;;;;4882992;29;20571;-84
2021/10/08 11:13:36;;;;;;;21.63;16.77;;;13.80;99.90;;;;;;4864978;29;20045;-84
2021/10/08 11:16:03;;;;;;;26.63;18.95;;;13.90;99.90;;;;;;4885147;29;20253;-84
2021/10/08 11:18:53;;;;;;;20.85;16.30;;;14.00;99.90;;;;;;4885565;29;20108;-85
2021/10/08 11:21:29;;;;;;;20.55;16.55;;;14.00;99.90;;;;;;4890743;29;20519;-86
2021/10/08 11:24:00;;;;;;;21.58;15.80;;;14.10;99.90;;;;;;4880876;29;20040;-85
2021/10/08 11:26:26;;;;;;;21.35;13.95;;;14.20;99.90;;;;;;4878855;29;20159;-84
2021/10/08 11:28:54;;;;;;;19.50;14.30;;;14.20;99.90;;;;;;4863840;29;20128;-86
2021/10/08 11:31:21;;;;;;;18.38;13.02;;;14.30;99.90;;;;;;4850634;29;20400;-84
2021/10/08 11:33:53;;;;;;;17.20;14.43;;;14.40;99.90;;;;;;4857052;29;20177;-84
2021/10/08 11:36:28;;;;;;;15.60;11.15;;;14.50;99.90;;;;;;4871340;29;20041;-85
2021/10/08 11:39:22;;;;;;;15.63;12.65;;;14.50;99.90;;;;;;4895944;29;20079;-84
2021/10/08 11:41:59;;;;;;;15.15;11.90;;;14.60;99.90;;;;;;4867431;29;20041;-86
2021/10/08 11:44:28;;;;;;;18.52;14.38;;;14.60;99.90;;;;;;4867794;29;20200;-86
2021/10/08 11:47:11;;;;;;;19.25;13.68;;;14.60;99.90;;;;;;4866302;29;20215;-85
2021/10/08 11:49:45;;;;;;;;;;;14.60;99.90;;;;;;4884674;29;20499;-85
2021/10/08 11:52:13;;;;;;;17.55;12.52;;;14.70;99.90;;;;;;4871734;29;19924;-87
2021/10/08 11:54:40;;;;;;;15.07;11.75;;;14.70;99.90;;;;;;4885385;29;20080;-86
2021/10/08 11:57:13;;;;;;;15.93;13.63;;;14.80;99.90;;;;;;4866039;29;20052;-85
2021/10/08 11:59:55;;;;;;;18.10;12.77;;;14.90;99.90;;;;;;4866795;29;20155;-84
2021/10/08 12:02:21;;;;;;;18.48;12.82;;;14.90;99.90;;;;;;4866004;29;20045;-85
2021/10/08 12:05:01;;;;;;;15.45;12.77;;;15.00;99.90;;;;;;4860073;29;20044;-86
2021/10/08 12:07:36;;;;;;;18.80;11.85;;;15.00;99.90;;;;;;4875342;29;20075;-83
2021/10/08 12:10:14;;;;;;;16.10;12.40;;;15.10;99.90;;;;;;4853070;29;20065;-85
2021/10/08 12:12:55;;;;;;;16.17;10.55;;;15.10;99.90;;;;;;4849113;29;20377;-84
2021/10/08 12:15:32;;;;;;;15.93;11.07;;;15.10;99.90;;;;;;4863636;29;20047;-86
2021/10/08 12:18:00;;;;;;;12.65;10.32;;;15.20;99.90;;;;;;4884241;29;20048;-85
2021/10/08 12:20:33;;;;;;;15.50;10.95;;;15.30;99.90;;;;;;4853478;29;20040;-87
2021/10/08 12:23:23;;;;;;;16.45;12.23;;;15.60;99.90;;;;;;4844446;29;20041;-85
2021/10/08 12:25:52;;;;;;;12.25;10.13;;;15.60;99.90;;;;;;4883929;29;20771;-84
2021/10/08 12:28:20;;;;;;;14.18;11.48;;;15.60;99.90;;;;;;4861204;29;20040;-86
2021/10/08 12:30:53;;;;;;;15.70;11.75;;;15.60;99.90;;;;;;4870587;29;20044;-87
2021/10/08 12:33:31;;;;;;;18.75;13.73;;;15.70;99.90;;;;;;4879209;29;20092;-83
2021/10/08 12:36:18;;;;;;;14.38;11.93;;;15.70;99.90;;;;;;4874419;29;20128;-84
2021/10/08 12:38:52;;;;;;;16.25;11.63;;;15.60;99.90;;;;;;4872328;29;20071;-84
2021/10/08 12:41:30;;;;;;;15.88;12.27;;;15.60;99.90;;;;;;4867879;29;20590;-85
2021/10/08 12:44:21;;;;;;;15.13;11.23;;;15.60;99.90;;;;;;4883440;29;20037;-83
2021/10/08 12:46:59;;;;;;;12.60;10.75;;;15.60;99.10;;;;;;4882347;29;20372;-84
2021/10/08 12:49:25;;;;;;;13.00;10.27;;;15.60;99.90;;;;;;4863254;29;20075;-84
2021/10/08 12:51:54;;;;;;;13.32;10.27;;;15.70;99.90;;;;;;4854929;29;20089;-82
2021/10/08 12:54:24;;;;;;;14.10;10.77;;;15.70;99.90;;;;;;4869892;29;20132;-84
2021/10/08 12:57:10;;;;;;;14.30;10.20;;;15.70;99.90;;;;;;4862463;29;21205;-83
2021/10/08 12:59:50;;;;;;;12.57;10.88;;;15.70;99.70;;;;;;4881740;29;20112;-83
2021/10/08 13:02:17;;;;;;;14.68;10.55;;;15.70;99.90;;;;;;4861719;29;20139;-84
2021/10/08 13:04:43;;;;;;;13.88;10.80;;;15.80;99.90;;;;;;4867557;29;20037;-84
2021/10/08 13:07:20;;;;;;;13.32;10.35;;;15.80;99.90;;;;;;4868149;29;20048;-83
2021/10/08 13:10:06;;;;;;;14.07;9.70;;;15.90;99.50;;;;;;4863734;29;20041;-84
2021/10/08 13:12:50;;;;;;;13.07;11.07;;;15.90;99.90;;;;;;4885088;29;20068;-84
2021/10/08 13:15:28;;;;;;;13.27;10.38;;;15.90;99.80;;;;;;4880450;29;20048;-83
2021/10/08 13:18:02;;;;;;;14.27;10.55;;;16.00;99.80;;;;;;4857886;29;20202;-86
2021/10/08 13:20:29;;;;;;;13.80;11.48;;;16.00;99.40;;;;;;4877521;29;20039;-88
2021/10/08 13:22:55;;;;;;;13.77;10.15;;;16.00;99.00;;;;;;4866806;29;20056;-85
2021/10/08 13:29:11;;;;;;;18.83;11.05;;;16.00;99.20;;;;;;4890068;29;20039;-86
2021/10/08 13:31:44;;;;;;;13.63;10.80;;;16.00;99.70;;;;;;4884005;29;20037;-87
2021/10/08 13:34:10;;;;;;;;;;;16.00;99.40;;;;;;4872838;29;20044;-86
2021/10/08 13:36:41;;;;;;;14.65;11.27;;;15.90;98.40;;;;;;4870551;29;20453;-88
2021/10/08 13:39:10;;;;;;;15.93;10.77;;;15.90;99.70;;;;;;4859625;29;21303;-88
2021/10/08 13:41:44;;;;;;;13.70;10.27;;;15.90;99.90;;;;;;4858163;29;20097;-88
2021/10/08 13:44:10;;;;;;;14.77;10.95;;;15.90;99.90;;;;;;4848994;29;20044;-87
2021/10/08 13:46:36;;;;;;;12.45;10.60;;;15.90;99.40;;;;;;4830385;29;20108;-84
2021/10/08 13:49:02;;;;;;;14.32;10.00;;;15.90;99.30;;;;;;4870908;29;20499;-86
2021/10/08 13:51:30;;;;;;;12.90;10.10;;;16.00;98.80;;;;;;4840384;29;20059;-85
2021/10/08 13:53:55;;;;;;;14.27;9.98;;;16.10;97.60;;;;;;4863900;29;20182;-87
2021/10/08 13:56:21;;;;;;;13.93;9.43;;;16.20;97.30;;;;;;4837773;29;20079;-86
2021/10/08 13:58:47;;;;;;;12.98;9.65;;;16.20;97.10;;;;;;4849965;29;20385;-87
2021/10/08 14:01:14;;;;;;;12.77;9.75;;;16.20;97.10;;;;;;4848886;29;20068;-85
2021/10/08 14:11:16;;;;;;;13.15;11.07;;;16.30;96.80;;;;;;4879144;29;20208;-83
2021/10/08 14:13:42;;;;;;;14.55;10.88;;;16.30;97.00;;;;;;4849168;29;20163;-86
2021/10/08 14:16:08;;;;;;;13.13;10.75;;;16.40;96.50;;;;;;4849191;29;20508;-87
2021/10/08 14:18:33;;;;;;;13.63;10.68;;;16.40;97.00;;;;;;4870531;29;20036;-85
2021/10/08 14:20:59;;;;;;;13.43;11.95;;;16.50;97.10;;;;;;4860457;29;20049;-84
2021/10/08 14:23:30;;;;;;;15.65;11.30;;;16.50;95.80;;;;;;4851565;29;20127;-85
2021/10/08 14:25:58;;;;;;;13.95;11.48;;;16.80;96.10;;;;;;4866378;29;20071;-84
2021/10/08 14:28:24;;;;;;;18.48;14.45;;;17.00;96.60;;;;;;4864830;29;20595;-84
2021/10/08 14:30:52;;;;;;;16.20;12.07;;;17.80;96.10;;;;;;4882658;29;20045;-83
2021/10/08 14:33:19;;;;;;;12.70;11.40;;;18.80;94.00;;;;;;4854776;29;20563;-84
2021/10/08 14:35:46;;;;;;;15.57;11.80;;;19.30;92.00;;;;;;4877787;29;20120;-84
2021/10/08 14:38:32;;;;;;;11.43;10.23;;;19.60;91.00;;;;;;4865091;29;20072;-85
2021/10/08 14:40:58;;;;;;;14.23;11.80;;;20.10;90.70;;;;;;4864174;29;20114;-83
2021/10/08 14:43:24;;;;;;;12.65;11.30;;;19.90;90.50;;;;;;4865661;29;20036;-84
2021/10/08 14:45:50;;;;;;;16.75;12.63;;;19.40;88.80;;;;;;4850740;29;20331;-83
2021/10/08 14:48:15;;;;;;;17.52;12.85;;;18.90;89.00;;;;;;4864710;29;20055;-84
2021/10/08 14:50:50;;;;;;;13.50;12.18;;;18.40;90.40;;;;;;4887783;29;20048;-84
2021/10/08 14:53:20;;;;;;;13.75;12.10;;;18.10;90.90;;;;;;4842038;29;20044;-84
2021/10/08 14:56:13;;;;;;;15.07;13.48;;;17.80;91.40;;;;;;4868368;29;20033;-85
2021/10/08 14:58:38;;;;;;;13.75;12.38;;;17.50;91.70;;;;;;4861453;29;20441;-85
2021/10/08 15:01:04;;;;;;;15.13;13.57;;;17.30;92.50;;;;;;4867523;29;20040;-85
2021/10/08 15:03:30;;;;;;;18.40;14.45;;;17.10;92.70;;;;;;4855878;29;20077;-85
2021/10/08 15:05:55;;;;;;;17.25;14.65;;;17.00;92.80;;;;;;4856768;29;20085;-85
2021/10/08 15:08:25;;;;;;;17.35;15.57;;;16.90;92.60;;;;;;4872357;29;20041;-85
2021/10/08 15:10:56;;;;;;;16.38;14.68;;;16.80;93.00;;;;;;4873272;29;20052;-83
2021/10/08 15:13:22;;;;;;;21.70;15.75;;;16.70;93.50;;;;;;4872995;29;20523;-84
2021/10/08 15:15:48;;;;;;;21.98;14.95;;;16.60;93.70;;;;;;4875052;29;20048;-83
2021/10/08 15:18:14;;;;;;;21.75;15.70;;;16.60;93.60;;;;;;4854234;29;20036;-84
2021/10/08 15:20:40;;;;;;;19.50;13.98;;;16.50;93.40;;;;;;4842128;29;20044;-84
2021/10/08 15:23:05;;;;;;;18.38;13.95;;;16.40;93.30;;;;;;4853556;29;20136;-82
2021/10/08 15:25:31;;;;;;;14.82;12.40;;;16.60;93.90;;;;;;4857962;29;20056;-84
2021/10/08 15:27:58;;;;;;;15.88;14.27;;;16.60;93.20;;;;;;4880966;29;20624;-85
2021/10/08 15:30:26;;;;;;;22.00;13.55;;;16.60;93.60;;;;;;4874478;29;20041;-83
2021/10/08 15:32:52;;;;;;;15.15;13.52;;;16.50;93.90;;;;;;4874568;29;20503;-85
2021/10/08 15:35:18;;;;;;;20.38;13.82;;;16.50;94.10;;;;;;4890861;29;20076;-85
2021/10/08 15:37:43;;;;;;;17.75;13.45;;;16.40;94.20;;;;;;4863699;29;20072;-84